Orion II — 9HUT9 — position and weather

sailwx.info

Track history (hours):
 
Tides and Currents Weather Stations Pressure Air Temp Water Temp Dewpoint Dewpoint Depression Visibility Wind Speed Wind Dir Waves Ship Positions

Orion II

Last reported at 2017-Jun-21 00:23 UTC. Time now 2017-Jun-23 18:51 UTC.
Position N 54°05' W 005°30'.

Length 88 m; draft 4 m.

MMSI: 249556000.

Date/timePositionNaut miles runAvg speedWind from/ knotsBaromVisibWave heightAir tempDewpointWater temp
2017-Jun-21 00:23N 54°05' W 005°30'513.3
2017-Jun-21 00:00N 54°09' W 005°27'613.1
2017-Jun-20 23:31N 54°15' W 005°24'612.7
2017-Jun-20 23:01N 54°21' W 005°20'612.5
2017-Jun-20 22:31N 54°28' W 005°18'611.7
2017-Jun-20 22:01N 54°33' W 005°19'611.4
2017-Jun-20 21:31N 54°38' W 005°24'611.0
2017-Jun-20 21:01N 54°43' W 005°30'611.8
2017-Jun-20 20:30N 54°42' W 005°40'511.0
2017-Jun-20 20:01N 54°41' W 005°49'5 9.1
2017-Jun-20 19:31N 54°37' W 005°54'1 1.0
2017-Jun-20 18:56N 54°37' W 005°55'0 0.0
2017-Jun-20 18:25N 54°37' W 005°55'0 0.0
2017-Jun-20 17:53N 54°37' W 005°55'0 0.0
2017-Jun-20 17:25N 54°37' W 005°55'0 0.0
2017-Jun-20 16:08N 54°37' W 005°55'0 0.0
2017-Jun-20 15:41N 54°37' W 005°55'0 0.0
2017-Jun-20 15:19N 54°37' W 005°55'0 0.0
2017-Jun-20 13:55N 54°37' W 005°55'0 0.0
2017-Jun-20 11:41N 54°37' W 005°55'0 0.0
2017-Jun-20 11:25N 54°37' W 005°55'0 0.0
2017-Jun-20 09:47N 54°37' W 005°55'0 0.0
2017-Jun-20 08:17N 54°37' W 005°55'0 0.0
2017-Jun-20 07:40N 54°37' W 005°55'0 0.0
2017-Jun-20 07:17N 54°37' W 005°55'0 0.0
2017-Jun-20 06:52N 54°37' W 005°55'0 1.2
2017-Jun-20 06:30N 54°37' W 005°54'4 8.5
2017-Jun-20 06:00N 54°40' W 005°50'510.2
2017-Jun-20 05:31N 54°43' W 005°42'4 7.7
2017-Jun-20 05:00N 54°46' W 005°39'711.5
2017-Jun-20 04:26N 54°53' W 005°40'3112.2
2017-Jun-20 01:53N 55°20' W 006°06'512.6
2017-Jun-20 01:31N 55°22' W 006°14'612.6
2017-Jun-20 01:00N 55°26' W 006°22'713.1
2017-Jun-20 00:30N 55°31' W 006°31'713.1
2017-Jun-20 00:00N 55°35' W 006°39'1311.0
2017-Jun-19 22:47N 55°45' W 006°55'213 4.2
2017-Jun-17 19:46N 58°52' W 003°47'312.5
2017-Jun-17 19:30N 58°53' W 003°41'612.3
2017-Jun-17 19:00N 58°56' W 003°30'612.3
2017-Jun-17 18:30N 58°57' W 003°18'1 0.3
2017-Jun-17 14:42N 58°58' W 003°18'0 0.0
2017-Jun-17 06:24N 58°58' W 003°18'1 3.3
2017-Jun-17 06:00N 58°57' W 003°16'612.6
2017-Jun-17 05:30N 58°51' W 003°11'612.9
2017-Jun-17 05:00N 58°46' W 003°02'5 9.5
2017-Jun-17 04:30N 58°42' W 002°60'611.4
2017-Jun-17 04:00N 58°37' W 002°54'6010.4
2017-Jun-16 22:14N 57°47' W 001°53'411.5
2017-Jun-16 21:52N 57°43' W 001°48'1011.9
2017-Jun-16 21:04N 57°35' W 001°41'111.6
2017-Jun-16 21:00N 57°34' W 001°41'611.0
2017-Jun-16 20:29N 57°28' W 001°39'1810.9
2017-Jun-16 18:51N 57°13' W 001°57'411.1
2017-Jun-16 18:30N 57°10' W 002°00'3 5.6
2017-Jun-16 17:59N 57°09' W 002°05'0 0.0
2017-Jun-16 17:29N 57°09' W 002°05'0 0.0
2017-Jun-16 16:59N 57°09' W 002°05'0 0.0
2017-Jun-16 16:29N 57°09' W 002°05'0 0.0
2017-Jun-16 15:59N 57°09' W 002°05'0 0.0
2017-Jun-16 15:29N 57°09' W 002°05'0 0.0
2017-Jun-16 14:59N 57°09' W 002°05'0 0.0
2017-Jun-16 13:59N 57°09' W 002°05'0 0.0
2017-Jun-16 13:29N 57°09' W 002°05'0 0.0
2017-Jun-16 12:59N 57°09' W 002°05'0 0.0
2017-Jun-16 12:29N 57°09' W 002°05'0 0.0
2017-Jun-16 11:59N 57°09' W 002°05'0 0.0
2017-Jun-16 11:29N 57°09' W 002°05'0 0.0
2017-Jun-16 10:59N 57°09' W 002°05'0 0.0
2017-Jun-16 10:29N 57°09' W 002°05'0 0.0
2017-Jun-16 10:00N 57°09' W 002°05'0 0.0
2017-Jun-16 09:30N 57°09' W 002°05'0 0.0
2017-Jun-16 09:00N 57°09' W 002°05'0 0.0
2017-Jun-16 08:30N 57°09' W 002°05'0 0.0
2017-Jun-16 08:00N 57°09' W 002°05'0 0.0
2017-Jun-16 07:28N 57°09' W 002°05'0 0.0
2017-Jun-16 06:58N 57°09' W 002°05'0 0.0
2017-Jun-16 06:28N 57°09' W 002°05'0 0.0
2017-Jun-16 05:58N 57°09' W 002°05'0 0.0
2017-Jun-16 05:28N 57°09' W 002°05'0 0.1
2017-Jun-16 05:01N 57°09' W 002°05'2 4.5
2017-Jun-16 04:30N 57°09' W 002°01'4 7.7
2017-Jun-16 04:00N 57°05' W 002°02'3410.8
2017-Jun-16 00:50N 56°32' W 002°15'1011.5
2017-Jun-16 00:00N 56°23' W 002°21'612.0
2017-Jun-15 23:29N 56°17' W 002°26'611.7
2017-Jun-15 23:00N 56°13' W 002°33'611.8
2017-Jun-15 22:30N 56°10' W 002°41'612.0
2017-Jun-15 22:00N 56°06' W 002°50'612.0
2017-Jun-15 21:30N 56°03' W 002°59'611.7
2017-Jun-15 21:00N 56°00' W 003°09'2 3.4
2017-Jun-15 20:29N 55°59' W 003°11'0 0.8
2017-Jun-15 19:59N 55°59' W 003°11'0 0.0
2017-Jun-15 19:29N 55°59' W 003°11'0 0.0
2017-Jun-15 18:59N 55°59' W 003°11'0 0.0
2017-Jun-15 18:29N 55°59' W 003°11'0 0.0
2017-Jun-15 17:56N 55°59' W 003°11'0 0.0
2017-Jun-15 17:29N 55°59' W 003°11'0 0.0
2017-Jun-15 16:59N 55°59' W 003°11'0 0.0
2017-Jun-15 16:29N 55°59' W 003°11'0 0.0
2017-Jun-15 15:59N 55°59' W 003°11'0 0.0
2017-Jun-15 15:29N 55°59' W 003°11'0 0.0
2017-Jun-15 14:59N 55°59' W 003°11'0 0.0
2017-Jun-15 13:59N 55°59' W 003°11'0 0.0
2017-Jun-15 13:29N 55°59' W 003°11'0 0.0
2017-Jun-15 12:59N 55°59' W 003°11'0 0.0
2017-Jun-15 12:29N 55°59' W 003°11'0 0.0
2017-Jun-15 11:59N 55°59' W 003°11'0 0.0
2017-Jun-15 11:29N 55°59' W 003°11'0 0.0
2017-Jun-15 10:59N 55°59' W 003°11'0 0.0
2017-Jun-15 10:29N 55°59' W 003°11'0 0.0
2017-Jun-15 09:59N 55°59' W 003°11'0 0.0
2017-Jun-15 09:29N 55°59' W 003°11'0 0.0
2017-Jun-15 08:59N 55°59' W 003°11'0 0.0
2017-Jun-15 08:29N 55°59' W 003°11'0 0.0
2017-Jun-15 07:59N 55°59' W 003°11'0 0.0
2017-Jun-15 07:29N 55°59' W 003°11'0 0.0
2017-Jun-15 06:59N 55°59' W 003°11'0 0.0
2017-Jun-15 06:29N 55°59' W 003°11'0 0.0
2017-Jun-15 06:01N 55°59' W 003°11'0 0.8
2017-Jun-15 05:30N 55°59' W 003°11'0 0.7
2017-Jun-15 05:00N 55°60' W 003°11'2 4.3
2017-Jun-15 04:31N 56°01' W 003°08'510.5
2017-Jun-15 04:00N 56°03' W 002°60'4 8.8
2017-Jun-15 03:30N 56°06' W 002°53'5 9.4
2017-Jun-15 03:00N 56°08' W 002°46'510.0
2017-Jun-15 02:30N 56°11' W 002°39'510.2
2017-Jun-15 02:00N 56°15' W 002°32'510.9
2017-Jun-15 01:30N 56°19' W 002°26'611.0
2017-Jun-15 01:00N 56°23' W 002°20'510.5
2017-Jun-15 00:30N 56°28' W 002°18'510.6
2017-Jun-15 00:00N 56°34' W 002°16'3111.0
2017-Jun-14 21:14N 57°03' W 002°03'211.0
2017-Jun-14 21:01N 57°06' W 002°01'3 6.8
2017-Jun-14 20:30N 57°09' W 002°03'1 2.2
2017-Jun-14 19:57N 57°09' W 002°05'0 0.0
2017-Jun-14 19:27N 57°09' W 002°05'0 0.0
2017-Jun-14 18:57N 57°09' W 002°05'0 0.0
2017-Jun-14 18:27N 57°09' W 002°05'0 0.0
2017-Jun-14 17:57N 57°09' W 002°05'0 0.0
2017-Jun-14 17:27N 57°09' W 002°05'0 0.0
2017-Jun-14 16:57N 57°09' W 002°05'0 0.0
2017-Jun-14 16:27N 57°09' W 002°05'0 0.0
2017-Jun-14 15:57N 57°09' W 002°05'0 0.0
2017-Jun-14 15:27N 57°09' W 002°05'0 0.0
2017-Jun-14 14:57N 57°09' W 002°05'0 0.0
2017-Jun-14 13:57N 57°09' W 002°05'0 0.0
2017-Jun-14 13:27N 57°09' W 002°05'0 0.0
2017-Jun-14 12:57N 57°09' W 002°05'0 0.0
2017-Jun-14 12:27N 57°09' W 002°05'0 0.0
2017-Jun-14 11:57N 57°09' W 002°05'0 0.0
2017-Jun-14 11:27N 57°09' W 002°05'0 0.0
2017-Jun-14 10:57N 57°09' W 002°05'0 0.0
2017-Jun-14 10:27N 57°09' W 002°05'0 0.0
2017-Jun-14 09:57N 57°09' W 002°05'0 0.0
2017-Jun-14 09:27N 57°09' W 002°05'0 0.0
2017-Jun-14 08:57N 57°09' W 002°05'0 0.0
2017-Jun-14 08:25N 57°09' W 002°05'0 0.0
2017-Jun-14 07:57N 57°09' W 002°05'0 0.0
2017-Jun-14 07:27N 57°09' W 002°05'0 0.0
2017-Jun-14 06:57N 57°09' W 002°05'0 0.0
2017-Jun-14 06:27N 57°09' W 002°05'0 0.0
2017-Jun-14 05:57N 57°09' W 002°05'0 0.0
2017-Jun-14 05:27N 57°09' W 002°05'0 0.3
2017-Jun-14 05:00N 57°09' W 002°05'2 4.7
2017-Jun-14 04:30N 57°10' W 002°01'510.4
2017-Jun-14 04:00N 57°14' W 001°56'1211.7
2017-Jun-14 02:57N 57°24' W 001°42'612.4
2017-Jun-14 02:30N 57°29' W 001°37'712.3
2017-Jun-14 01:57N 57°35' W 001°38'612.4
2017-Jun-14 01:26N 57°41' W 001°43'613.8
2017-Jun-14 01:00N 57°46' W 001°50'5713.7
2017-Jun-13 20:49N 58°34' W 002°50'514.7
2017-Jun-13 20:30N 58°37' W 002°56'714.6
2017-Jun-13 20:00N 58°43' W 003°05'510.0
2017-Jun-13 19:30N 58°47' W 003°04'510.5
2017-Jun-13 19:00N 58°53' W 003°04'611.4
2017-Jun-13 18:30N 58°55' W 003°14'3 1.0
2017-Jun-13 15:31N 58°58' W 003°18'0 0.0
2017-Jun-13 15:19N 58°58' W 003°18'0 0.0
2017-Jun-13 09:31N 58°58' W 003°18'0 0.0
2017-Jun-13 09:30N 58°58' W 003°18'0 0.0
2017-Jun-13 07:07N 58°58' W 003°18'0 0.5
2017-Jun-13 07:00N 58°58' W 003°18'4 8.3
2017-Jun-13 06:30N 58°54' W 003°13'611.4
2017-Jun-13 06:00N 58°49' W 003°09'8 7.1
2017-Jun-13 04:49N 58°46' W 003°24'411.0
2017-Jun-13 04:27N 58°46' W 003°31'511.7
2017-Jun-13 04:00N 58°46' W 003°42'611.5
2017-Jun-13 03:30N 58°46' W 003°53'612.1
2017-Jun-13 03:00N 58°46' W 004°04'200 4.0
2017-Jun-11 00:49N 55°47' W 006°51'414.9
2017-Jun-11 00:30N 55°44' W 006°47'  
Track history (hours):
 
Tides and Currents Weather Stations Pressure Air Temp Water Temp Dewpoint Dewpoint Depression Visibility Wind Speed Wind Dir Waves Ship Positions

Orion II

Last reported at 2017-Jun-21 00:23 UTC. Time now 2017-Jun-23 18:51 UTC.
Position N 54°05' W 005°30'.

Length 88 m; draft 4 m.

MMSI: 249556000.

Date/timePositionNaut miles runAvg speedWind from/ knotsBaromVisibWave heightAir tempDewpointWater temp
2017-Jun-21 00:23N 54°05' W 005°30'513.3
2017-Jun-21 00:00N 54°09' W 005°27'613.1
2017-Jun-20 23:31N 54°15' W 005°24'612.7
2017-Jun-20 23:01N 54°21' W 005°20'612.5
2017-Jun-20 22:31N 54°28' W 005°18'611.7
2017-Jun-20 22:01N 54°33' W 005°19'611.4
2017-Jun-20 21:31N 54°38' W 005°24'611.0
2017-Jun-20 21:01N 54°43' W 005°30'611.8
2017-Jun-20 20:30N 54°42' W 005°40'511.0
2017-Jun-20 20:01N 54°41' W 005°49'5 9.1
2017-Jun-20 19:31N 54°37' W 005°54'1 1.0
2017-Jun-20 18:56N 54°37' W 005°55'0 0.0
2017-Jun-20 18:25N 54°37' W 005°55'0 0.0
2017-Jun-20 17:53N 54°37' W 005°55'0 0.0
2017-Jun-20 17:25N 54°37' W 005°55'0 0.0
2017-Jun-20 16:08N 54°37' W 005°55'0 0.0
2017-Jun-20 15:41N 54°37' W 005°55'0 0.0
2017-Jun-20 15:19N 54°37' W 005°55'0 0.0
2017-Jun-20 13:55N 54°37' W 005°55'0 0.0
2017-Jun-20 11:41N 54°37' W 005°55'0 0.0
2017-Jun-20 11:25N 54°37' W 005°55'0 0.0
2017-Jun-20 09:47N 54°37' W 005°55'0 0.0
2017-Jun-20 08:17N 54°37' W 005°55'0 0.0
2017-Jun-20 07:40N 54°37' W 005°55'0 0.0
2017-Jun-20 07:17N 54°37' W 005°55'0 0.0
2017-Jun-20 06:52N 54°37' W 005°55'0 1.2
2017-Jun-20 06:30N 54°37' W 005°54'4 8.5
2017-Jun-20 06:00N 54°40' W 005°50'510.2
2017-Jun-20 05:31N 54°43' W 005°42'4 7.7
2017-Jun-20 05:00N 54°46' W 005°39'711.5
2017-Jun-20 04:26N 54°53' W 005°40'3112.2
2017-Jun-20 01:53N 55°20' W 006°06'512.6
2017-Jun-20 01:31N 55°22' W 006°14'612.6
2017-Jun-20 01:00N 55°26' W 006°22'713.1
2017-Jun-20 00:30N 55°31' W 006°31'713.1
2017-Jun-20 00:00N 55°35' W 006°39'1311.0
2017-Jun-19 22:47N 55°45' W 006°55'213 4.2
2017-Jun-17 19:46N 58°52' W 003°47'312.5
2017-Jun-17 19:30N 58°53' W 003°41'612.3
2017-Jun-17 19:00N 58°56' W 003°30'612.3
2017-Jun-17 18:30N 58°57' W 003°18'1 0.3
2017-Jun-17 14:42N 58°58' W 003°18'0 0.0
2017-Jun-17 06:24N 58°58' W 003°18'1 3.3
2017-Jun-17 06:00N 58°57' W 003°16'612.6
2017-Jun-17 05:30N 58°51' W 003°11'612.9
2017-Jun-17 05:00N 58°46' W 003°02'5 9.5
2017-Jun-17 04:30N 58°42' W 002°60'611.4
2017-Jun-17 04:00N 58°37' W 002°54'6010.4
2017-Jun-16 22:14N 57°47' W 001°53'411.5
2017-Jun-16 21:52N 57°43' W 001°48'1011.9
2017-Jun-16 21:04N 57°35' W 001°41'111.6
2017-Jun-16 21:00N 57°34' W 001°41'611.0
2017-Jun-16 20:29N 57°28' W 001°39'1810.9
2017-Jun-16 18:51N 57°13' W 001°57'411.1
2017-Jun-16 18:30N 57°10' W 002°00'3 5.6
2017-Jun-16 17:59N 57°09' W 002°05'0 0.0
2017-Jun-16 17:29N 57°09' W 002°05'0 0.0
2017-Jun-16 16:59N 57°09' W 002°05'0 0.0
2017-Jun-16 16:29N 57°09' W 002°05'0 0.0
2017-Jun-16 15:59N 57°09' W 002°05'0 0.0
2017-Jun-16 15:29N 57°09' W 002°05'0 0.0
2017-Jun-16 14:59N 57°09' W 002°05'0 0.0
2017-Jun-16 13:59N 57°09' W 002°05'0 0.0
2017-Jun-16 13:29N 57°09' W 002°05'0 0.0
2017-Jun-16 12:59N 57°09' W 002°05'0 0.0
2017-Jun-16 12:29N 57°09' W 002°05'0 0.0
2017-Jun-16 11:59N 57°09' W 002°05'0 0.0
2017-Jun-16 11:29N 57°09' W 002°05'0 0.0
2017-Jun-16 10:59N 57°09' W 002°05'0 0.0
2017-Jun-16 10:29N 57°09' W 002°05'0 0.0
2017-Jun-16 10:00N 57°09' W 002°05'0 0.0
2017-Jun-16 09:30N 57°09' W 002°05'0 0.0
2017-Jun-16 09:00N 57°09' W 002°05'0 0.0
2017-Jun-16 08:30N 57°09' W 002°05'0 0.0
2017-Jun-16 08:00N 57°09' W 002°05'0 0.0
2017-Jun-16 07:28N 57°09' W 002°05'0 0.0
2017-Jun-16 06:58N 57°09' W 002°05'0 0.0
2017-Jun-16 06:28N 57°09' W 002°05'0 0.0
2017-Jun-16 05:58N 57°09' W 002°05'0 0.0
2017-Jun-16 05:28N 57°09' W 002°05'0 0.1
2017-Jun-16 05:01N 57°09' W 002°05'2 4.5
2017-Jun-16 04:30N 57°09' W 002°01'4 7.7
2017-Jun-16 04:00N 57°05' W 002°02'3410.8
2017-Jun-16 00:50N 56°32' W 002°15'1011.5
2017-Jun-16 00:00N 56°23' W 002°21'612.0
2017-Jun-15 23:29N 56°17' W 002°26'611.7
2017-Jun-15 23:00N 56°13' W 002°33'611.8
2017-Jun-15 22:30N 56°10' W 002°41'612.0
2017-Jun-15 22:00N 56°06' W 002°50'612.0
2017-Jun-15 21:30N 56°03' W 002°59'611.7
2017-Jun-15 21:00N 56°00' W 003°09'2 3.4
2017-Jun-15 20:29N 55°59' W 003°11'0 0.8
2017-Jun-15 19:59N 55°59' W 003°11'0 0.0
2017-Jun-15 19:29N 55°59' W 003°11'0 0.0
2017-Jun-15 18:59N 55°59' W 003°11'0 0.0
2017-Jun-15 18:29N 55°59' W 003°11'0 0.0
2017-Jun-15 17:56N 55°59' W 003°11'0 0.0
2017-Jun-15 17:29N 55°59' W 003°11'0 0.0
2017-Jun-15 16:59N 55°59' W 003°11'0 0.0
2017-Jun-15 16:29N 55°59' W 003°11'0 0.0
2017-Jun-15 15:59N 55°59' W 003°11'0 0.0
2017-Jun-15 15:29N 55°59' W 003°11'0 0.0
2017-Jun-15 14:59N 55°59' W 003°11'0 0.0
2017-Jun-15 13:59N 55°59' W 003°11'0 0.0
2017-Jun-15 13:29N 55°59' W 003°11'0 0.0
2017-Jun-15 12:59N 55°59' W 003°11'0 0.0
2017-Jun-15 12:29N 55°59' W 003°11'0 0.0
2017-Jun-15 11:59N 55°59' W 003°11'0 0.0
2017-Jun-15 11:29N 55°59' W 003°11'0 0.0
2017-Jun-15 10:59N 55°59' W 003°11'0 0.0
2017-Jun-15 10:29N 55°59' W 003°11'0 0.0
2017-Jun-15 09:59N 55°59' W 003°11'0 0.0
2017-Jun-15 09:29N 55°59' W 003°11'0 0.0
2017-Jun-15 08:59N 55°59' W 003°11'0 0.0
2017-Jun-15 08:29N 55°59' W 003°11'0 0.0
2017-Jun-15 07:59N 55°59' W 003°11'0 0.0
2017-Jun-15 07:29N 55°59' W 003°11'0 0.0
2017-Jun-15 06:59N 55°59' W 003°11'0 0.0
2017-Jun-15 06:29N 55°59' W 003°11'0 0.0
2017-Jun-15 06:01N 55°59' W 003°11'0 0.8
2017-Jun-15 05:30N 55°59' W 003°11'0 0.7
2017-Jun-15 05:00N 55°60' W 003°11'2 4.3
2017-Jun-15 04:31N 56°01' W 003°08'510.5
2017-Jun-15 04:00N 56°03' W 002°60'4 8.8
2017-Jun-15 03:30N 56°06' W 002°53'5 9.4
2017-Jun-15 03:00N 56°08' W 002°46'510.0
2017-Jun-15 02:30N 56°11' W 002°39'510.2
2017-Jun-15 02:00N 56°15' W 002°32'510.9
2017-Jun-15 01:30N 56°19' W 002°26'611.0
2017-Jun-15 01:00N 56°23' W 002°20'510.5
2017-Jun-15 00:30N 56°28' W 002°18'510.6
2017-Jun-15 00:00N 56°34' W 002°16'3111.0
2017-Jun-14 21:14N 57°03' W 002°03'211.0
2017-Jun-14 21:01N 57°06' W 002°01'3 6.8
2017-Jun-14 20:30N 57°09' W 002°03'1 2.2
2017-Jun-14 19:57N 57°09' W 002°05'0 0.0
2017-Jun-14 19:27N 57°09' W 002°05'0 0.0
2017-Jun-14 18:57N 57°09' W 002°05'0 0.0
2017-Jun-14 18:27N 57°09' W 002°05'0 0.0
2017-Jun-14 17:57N 57°09' W 002°05'0 0.0
2017-Jun-14 17:27N 57°09' W 002°05'0 0.0
2017-Jun-14 16:57N 57°09' W 002°05'0 0.0
2017-Jun-14 16:27N 57°09' W 002°05'0 0.0
2017-Jun-14 15:57N 57°09' W 002°05'0 0.0
2017-Jun-14 15:27N 57°09' W 002°05'0 0.0
2017-Jun-14 14:57N 57°09' W 002°05'0 0.0
2017-Jun-14 13:57N 57°09' W 002°05'0 0.0
2017-Jun-14 13:27N 57°09' W 002°05'0 0.0
2017-Jun-14 12:57N 57°09' W 002°05'0 0.0
2017-Jun-14 12:27N 57°09' W 002°05'0 0.0
2017-Jun-14 11:57N 57°09' W 002°05'0 0.0
2017-Jun-14 11:27N 57°09' W 002°05'0 0.0
2017-Jun-14 10:57N 57°09' W 002°05'0 0.0
2017-Jun-14 10:27N 57°09' W 002°05'0 0.0
2017-Jun-14 09:57N 57°09' W 002°05'0 0.0
2017-Jun-14 09:27N 57°09' W 002°05'0 0.0
2017-Jun-14 08:57N 57°09' W 002°05'0 0.0
2017-Jun-14 08:25N 57°09' W 002°05'0 0.0
2017-Jun-14 07:57N 57°09' W 002°05'0 0.0
2017-Jun-14 07:27N 57°09' W 002°05'0 0.0
2017-Jun-14 06:57N 57°09' W 002°05'0 0.0
2017-Jun-14 06:27N 57°09' W 002°05'0 0.0
2017-Jun-14 05:57N 57°09' W 002°05'0 0.0
2017-Jun-14 05:27N 57°09' W 002°05'0 0.3
2017-Jun-14 05:00N 57°09' W 002°05'2 4.7
2017-Jun-14 04:30N 57°10' W 002°01'510.4
2017-Jun-14 04:00N 57°14' W 001°56'1211.7
2017-Jun-14 02:57N 57°24' W 001°42'612.4
2017-Jun-14 02:30N 57°29' W 001°37'712.3
2017-Jun-14 01:57N 57°35' W 001°38'612.4
2017-Jun-14 01:26N 57°41' W 001°43'613.8
2017-Jun-14 01:00N 57°46' W 001°50'5713.7
2017-Jun-13 20:49N 58°34' W 002°50'514.7
2017-Jun-13 20:30N 58°37' W 002°56'714.6
2017-Jun-13 20:00N 58°43' W 003°05'510.0
2017-Jun-13 19:30N 58°47' W 003°04'510.5
2017-Jun-13 19:00N 58°53' W 003°04'611.4
2017-Jun-13 18:30N 58°55' W 003°14'3 1.0
2017-Jun-13 15:31N 58°58' W 003°18'0 0.0
2017-Jun-13 15:19N 58°58' W 003°18'0 0.0
2017-Jun-13 09:31N 58°58' W 003°18'0 0.0
2017-Jun-13 09:30N 58°58' W 003°18'0 0.0
2017-Jun-13 07:07N 58°58' W 003°18'0 0.5
2017-Jun-13 07:00N 58°58' W 003°18'4 8.3
2017-Jun-13 06:30N 58°54' W 003°13'611.4
2017-Jun-13 06:00N 58°49' W 003°09'8 7.1
2017-Jun-13 04:49N 58°46' W 003°24'411.0
2017-Jun-13 04:27N 58°46' W 003°31'511.7
2017-Jun-13 04:00N 58°46' W 003°42'611.5
2017-Jun-13 03:30N 58°46' W 003°53'612.1
2017-Jun-13 03:00N 58°46' W 004°04'200 4.0
2017-Jun-11 00:49N 55°47' W 006°51'414.9
2017-Jun-11 00:30N 55°44' W 006°47'  

Dump ship's entire track history